createdAt,value
2022-08-12T00:00:22.568Z,96194.56
2022-08-12T00:03:09.058Z,96207.06
2022-08-12T00:06:04.665Z,96203.69
2022-08-12T00:08:53.344Z,96208.31
2022-08-12T00:11:40.478Z,96196.59
2022-08-12T00:14:26.364Z,96199.91
2022-08-12T00:17:12.081Z,96194.94
2022-08-12T00:19:58.119Z,96197.19
2022-08-12T00:22:44.212Z,96197.13
2022-08-12T00:25:51.277Z,96190.81
2022-08-12T00:28:35.827Z,96196.13
2022-08-12T00:31:21.689Z,96193.00
2022-08-12T00:34:07.549Z,96189.72
2022-08-12T00:36:52.915Z,96195.78
2022-08-12T00:39:39.423Z,96195.94
2022-08-12T00:42:10.693Z,96184.50
2022-08-12T00:44:39.657Z,96183.78
2022-08-12T00:47:07.305Z,96192.44
2022-08-12T00:49:39.775Z,96184.59
2022-08-12T00:52:10.913Z,96180.16
2022-08-12T00:54:59.650Z,96182.00
2022-08-12T00:57:35.752Z,96185.75
2022-08-12T01:00:15.917Z,96179.84
2022-08-12T01:02:48.619Z,96177.47
2022-08-12T01:05:36.878Z,96179.63
2022-08-12T01:08:23.278Z,96173.59
2022-08-12T01:11:10.283Z,96168.44
2022-08-12T01:13:42.427Z,96182.81
2022-08-12T01:16:11.061Z,96190.06
2022-08-12T01:18:39.720Z,96182.81
2022-08-12T01:21:12.169Z,96184.09
2022-08-12T01:24:30.612Z,96182.84
2022-08-12T01:27:01.249Z,96177.22
2022-08-12T01:29:32.888Z,96174.09
2022-08-12T01:32:05.378Z,96175.91
2022-08-12T01:34:37.511Z,96168.41
2022-08-12T01:37:07.969Z,96172.16
2022-08-12T01:40:33.985Z,96179.31
2022-08-12T01:42:34.002Z,96174.00
2022-08-12T01:45:02.610Z,96174.50
2022-08-12T01:47:49.777Z,96167.75
2022-08-12T01:50:40.909Z,96176.72
2022-08-12T01:53:13.546Z,96174.25
2022-08-12T01:55:45.030Z,96174.00
2022-08-12T01:58:26.844Z,96171.00
2022-08-12T02:01:03.569Z,96168.81
2022-08-12T02:03:52.089Z,96176.34
2022-08-12T02:07:05.862Z,96179.44
2022-08-12T02:10:50.525Z,96173.22
2022-08-12T02:13:49.823Z,96174.41
2022-08-12T02:16:45.898Z,96167.88
2022-08-12T02:19:31.709Z,96173.47
2022-08-12T02:22:19.801Z,96178.28
2022-08-12T02:24:49.880Z,96171.00
2022-08-12T02:27:19.647Z,96171.91
2022-08-12T02:29:47.527Z,96168.53
2022-08-12T02:32:15.096Z,96175.69
2022-08-12T02:34:44.509Z,96167.47
2022-08-12T02:37:15.498Z,96165.59
2022-08-12T02:39:49.852Z,96175.03
2022-08-12T02:42:20.638Z,96157.94
2022-08-12T02:44:51.472Z,96161.38
2022-08-12T02:48:00.049Z,96169.44
2022-08-12T02:50:11.077Z,96157.19
2022-08-12T02:52:38.929Z,96172.47
2022-08-12T02:55:28.882Z,96161.59
2022-08-12T02:58:12.591Z,96164.53
2022-08-12T03:00:43.437Z,96164.56
2022-08-12T03:03:12.987Z,96163.00
2022-08-12T03:05:56.622Z,96170.66
2022-08-12T03:08:32.628Z,96164.44
2022-08-12T03:11:14.096Z,96163.28
2022-08-12T03:13:47.073Z,96154.16
2022-08-12T03:16:14.831Z,96155.97
2022-08-12T03:18:45.746Z,96163.78
2022-08-12T03:21:17.127Z,96168.97
2022-08-12T03:23:45.989Z,96174.53
2022-08-12T03:26:14.703Z,96167.38
2022-08-12T03:28:51.227Z,96167.84
2022-08-12T03:31:22.713Z,96171.88
2022-08-12T03:34:00.448Z,96172.34
2022-08-12T03:36:35.181Z,96174.34
2022-08-12T03:39:17.052Z,96173.88
2022-08-12T03:41:59.026Z,96176.75
2022-08-12T03:44:55.669Z,96166.97
2022-08-12T03:47:53.812Z,96172.22
2022-08-12T03:50:39.999Z,96175.91
2022-08-12T03:53:27.788Z,96177.78
2022-08-12T03:56:13.539Z,96164.50
2022-08-12T03:58:59.846Z,96163.06
2022-08-12T04:01:27.317Z,96168.41
2022-08-12T04:03:55.233Z,96165.75
2022-08-12T04:06:35.594Z,96172.53
2022-08-12T04:09:14.813Z,96167.84
2022-08-12T04:12:03.978Z,96163.50
2022-08-12T04:14:33.186Z,96173.19
2022-08-12T04:17:01.765Z,96178.28
2022-08-12T04:19:29.411Z,96176.44
2022-08-12T04:22:01.219Z,96181.09
2022-08-12T04:24:35.990Z,96186.63
2022-08-12T04:27:08.971Z,96180.38
2022-08-12T04:30:17.096Z,96187.50
2022-08-12T04:32:25.906Z,96185.38
2022-08-12T04:34:53.465Z,96191.28
2022-08-12T04:37:20.976Z,96185.06
2022-08-12T04:39:48.808Z,96185.06
2022-08-12T04:42:16.169Z,96187.72
2022-08-12T04:44:44.346Z,96186.44
2022-08-12T04:47:16.484Z,96189.88
2022-08-12T04:49:46.293Z,96187.28
2022-08-12T04:52:14.777Z,96192.44
2022-08-12T04:54:43.783Z,96187.63
2022-08-12T04:57:11.217Z,96187.41
2022-08-12T04:59:46.978Z,96191.19
2022-08-12T05:02:22.071Z,96195.00
2022-08-12T05:04:51.909Z,96201.44
2022-08-12T05:07:20.620Z,96190.63
2022-08-12T05:09:59.300Z,96189.72
2022-08-12T05:12:39.858Z,96192.88
2022-08-12T05:15:19.516Z,96187.94
2022-08-12T05:17:55.878Z,96191.41
2022-08-12T05:20:25.925Z,96185.25
2022-08-12T05:23:12.966Z,96195.41
2022-08-12T05:25:45.522Z,96188.38
2022-08-12T05:28:13.969Z,96177.97
2022-08-12T05:30:42.608Z,96187.19
2022-08-12T05:33:11.229Z,96192.09
2022-08-12T05:35:42.865Z,96194.50
2022-08-12T05:38:33.067Z,96197.09
2022-08-12T05:41:01.180Z,96195.66
2022-08-12T05:43:31.150Z,96193.16
2022-08-12T05:45:58.353Z,96207.00
2022-08-12T05:48:25.624Z,96198.94
2022-08-12T05:50:53.090Z,96204.34
2022-08-12T05:53:20.360Z,96203.88
2022-08-12T05:55:47.503Z,96194.00
2022-08-12T05:58:14.589Z,96208.97
2022-08-12T06:00:42.482Z,96204.28
2022-08-12T06:03:09.854Z,96205.97
2022-08-12T06:05:43.129Z,96203.69
2022-08-12T06:08:24.752Z,96205.59
2022-08-12T06:10:52.214Z,96211.69
2022-08-12T06:13:28.388Z,96205.34
2022-08-12T06:16:09.796Z,96213.16
2022-08-12T06:18:41.138Z,96206.53
2022-08-12T06:21:09.252Z,96204.66
2022-08-12T06:23:42.294Z,96201.41
2022-08-12T06:26:12.645Z,96194.66
2022-08-12T06:28:40.835Z,96197.75
2022-08-12T06:31:25.208Z,96200.50
2022-08-12T06:34:01.036Z,96203.75
2022-08-12T06:36:42.975Z,96207.66
2022-08-12T06:39:15.448Z,96199.16
2022-08-12T06:42:10.732Z,96205.59
2022-08-12T06:44:50.331Z,96195.22
2022-08-12T06:47:19.336Z,96189.09
2022-08-12T06:49:46.596Z,96196.16
2022-08-12T06:52:14.006Z,96197.13
2022-08-12T06:54:45.746Z,96204.00
2022-08-12T06:58:06.398Z,96208.41
2022-08-12T07:00:00.078Z,96206.84
2022-08-12T07:02:27.345Z,96204.72
2022-08-12T07:04:54.508Z,96199.63
2022-08-12T07:07:22.167Z,96200.72
2022-08-12T07:10:05.260Z,96197.91
2022-08-12T07:12:34.662Z,96197.28
2022-08-12T07:15:02.415Z,96200.88
2022-08-12T07:17:36.231Z,96189.81
2022-08-12T07:20:09.895Z,96197.63
2022-08-12T07:22:37.676Z,96203.84
2022-08-12T07:25:23.932Z,96196.69
2022-08-12T07:27:54.482Z,96206.66
2022-08-12T07:30:23.183Z,96198.38
2022-08-12T07:32:51.590Z,96212.88
2022-08-12T07:35:20.212Z,96207.56
2022-08-12T07:37:50.064Z,96217.84
2022-08-12T07:40:18.675Z,96216.28
2022-08-12T07:42:46.116Z,96220.94
2022-08-12T07:45:14.544Z,96216.63
2022-08-12T07:47:43.261Z,96220.78
2022-08-12T07:50:13.331Z,96223.78
2022-08-12T07:52:43.882Z,96221.59
2022-08-12T07:55:12.047Z,96222.19
2022-08-12T07:57:57.530Z,96230.28
2022-08-12T08:00:27.978Z,96222.53
2022-08-12T08:02:55.276Z,96231.88
2022-08-12T08:05:25.670Z,96234.69
2022-08-12T08:07:55.649Z,96230.16
2022-08-12T08:10:23.457Z,96238.91
2022-08-12T08:12:53.389Z,96245.56
2022-08-12T08:15:44.605Z,96246.81
2022-08-12T08:18:26.687Z,96248.31
2022-08-12T08:20:56.316Z,96236.34
2022-08-12T08:23:46.317Z,96243.91
2022-08-12T08:26:15.522Z,96237.38
2022-08-12T08:28:43.602Z,96241.44
2022-08-12T08:31:13.871Z,96240.78
2022-08-12T08:34:04.832Z,96241.72
2022-08-12T08:36:28.852Z,96242.03
2022-08-12T08:38:58.148Z,96244.53
2022-08-12T08:42:17.008Z,96239.50
2022-08-12T08:44:32.563Z,96240.75
2022-08-12T08:47:01.148Z,96240.84
2022-08-12T08:49:28.344Z,96254.22
2022-08-12T08:51:55.649Z,96249.38
2022-08-12T08:54:24.644Z,96250.00
2022-08-12T08:56:52.341Z,96251.53
2022-08-12T08:59:19.915Z,96253.69
2022-08-12T09:01:47.911Z,96252.13
2022-08-12T09:05:08.902Z,96248.34
2022-08-12T09:07:17.249Z,96237.88
2022-08-12T09:10:02.256Z,96248.56
2022-08-12T09:12:54.145Z,96244.47
2022-08-12T09:15:34.967Z,96243.53
2022-08-12T09:18:08.730Z,96247.72
2022-08-12T09:20:38.220Z,96243.91
2022-08-12T09:24:00.124Z,96243.22
2022-08-12T09:25:55.447Z,96243.88
2022-08-12T09:32:02.763Z,96243.44
2022-08-12T09:34:29.234Z,96246.19
2022-08-12T09:36:58.329Z,96246.78
2022-08-12T09:40:01.570Z,96225.63
2022-08-12T09:42:44.033Z,96240.00
2022-08-12T09:46:06.941Z,96242.38
2022-08-12T09:48:20.449Z,96235.66
2022-08-12T09:50:51.945Z,96229.44
2022-08-12T09:53:36.387Z,96228.41
2022-08-12T09:56:59.711Z,96231.91
2022-08-12T09:59:01.681Z,96232.50
2022-08-12T10:01:35.031Z,96222.00
2022-08-12T10:04:19.529Z,96217.84
2022-08-12T10:06:53.999Z,96224.19
2022-08-12T10:09:28.482Z,96214.72
2022-08-12T10:12:32.982Z,96209.22
2022-08-12T10:15:01.798Z,96201.19
2022-08-12T10:17:29.328Z,96201.66
2022-08-12T10:19:59.776Z,96202.66
2022-08-12T10:22:39.327Z,96188.31
2022-08-12T10:26:34.566Z,96188.19
2022-08-12T10:28:38.200Z,96181.66
2022-08-12T10:31:06.558Z,96173.81
2022-08-12T10:34:05.195Z,96175.84
2022-08-12T10:36:36.123Z,96177.50
2022-08-12T10:40:00.654Z,96166.16
2022-08-12T10:42:18.347Z,96171.97
2022-08-12T10:45:01.056Z,96178.50
2022-08-12T10:48:20.456Z,96158.72
2022-08-12T10:50:28.042Z,96163.66
2022-08-12T10:53:01.586Z,96159.50
2022-08-12T10:55:28.727Z,96157.53
2022-08-12T10:58:14.810Z,96158.75
2022-08-12T11:00:55.250Z,96152.06
2022-08-12T11:04:23.465Z,96153.31
2022-08-12T11:07:09.298Z,96153.75
2022-08-12T11:09:11.389Z,96150.16
2022-08-12T11:12:35.905Z,96142.22
2022-08-12T11:14:49.075Z,96160.59
2022-08-12T11:17:34.057Z,96153.00
2022-08-12T11:20:06.365Z,96143.81
2022-08-12T11:22:35.097Z,96148.81
2022-08-12T11:25:02.396Z,96143.81
2022-08-12T11:27:37.856Z,96148.31
2022-08-12T11:30:31.210Z,96143.09
2022-08-12T11:32:52.608Z,96146.81
2022-08-12T11:35:20.946Z,96154.69
2022-08-12T11:37:58.055Z,96148.81
2022-08-12T11:40:26.937Z,96142.13
2022-08-12T11:43:01.867Z,96143.28
2022-08-12T11:45:46.947Z,96146.88
2022-08-12T11:48:15.610Z,96132.75
2022-08-12T11:50:43.742Z,96131.97
2022-08-12T11:53:57.497Z,96139.75
2022-08-12T11:55:57.957Z,96141.69
2022-08-12T11:59:28.634Z,96134.56
2022-08-12T12:02:03.412Z,96139.97
2022-08-12T12:03:59.595Z,96129.44
2022-08-12T12:06:27.881Z,96126.75
2022-08-12T12:08:55.278Z,96126.56
2022-08-12T12:11:22.899Z,96112.66
2022-08-12T12:14:08.101Z,96113.91
2022-08-12T12:16:39.967Z,96121.81
2022-08-12T12:19:10.415Z,96108.25
2022-08-12T12:21:48.652Z,96120.53
2022-08-12T12:24:21.859Z,96112.72
2022-08-12T12:27:00.101Z,96113.72
2022-08-12T12:30:18.339Z,96100.97
2022-08-12T12:32:18.456Z,96106.06
2022-08-12T12:35:17.754Z,96095.22
2022-08-12T12:38:05.386Z,96097.00
2022-08-12T12:40:21.889Z,96083.06
2022-08-12T12:43:01.898Z,96086.94
2022-08-12T12:45:33.869Z,96080.50
2022-08-12T12:48:15.905Z,96088.53
2022-08-12T12:50:51.510Z,96081.56
2022-08-12T12:54:07.948Z,96064.75
2022-08-12T12:56:20.469Z,96070.50
2022-08-12T12:59:03.529Z,96070.50
2022-08-12T13:01:38.397Z,96074.88
2022-08-12T13:04:12.112Z,96081.34
2022-08-12T13:06:41.140Z,96079.34
2022-08-12T13:09:12.857Z,96081.75
2022-08-12T13:11:42.027Z,96077.31
2022-08-12T13:14:28.607Z,96066.78
2022-08-12T13:17:03.567Z,96071.41
2022-08-12T13:19:44.566Z,96070.97
2022-08-12T13:22:19.575Z,96069.88
2022-08-12T13:24:52.081Z,96067.66
2022-08-12T13:27:35.599Z,96062.78
2022-08-12T13:30:12.335Z,96068.47
2022-08-12T13:32:57.555Z,96061.84
2022-08-12T13:35:33.188Z,96061.78
2022-08-12T13:38:02.461Z,96064.59
2022-08-12T13:40:33.479Z,96069.25
2022-08-12T13:43:01.882Z,96068.22
2022-08-12T13:45:31.828Z,96072.84
2022-08-12T13:48:00.441Z,96072.56
2022-08-12T13:50:36.318Z,96069.25
2022-08-12T13:53:26.217Z,96074.44
2022-08-12T13:56:03.106Z,96076.22
2022-08-12T13:58:33.036Z,96065.94
2022-08-12T14:01:05.984Z,96067.50
2022-08-12T14:03:50.298Z,96065.19
2022-08-12T14:06:21.108Z,96055.88
2022-08-12T14:08:51.507Z,96056.94
2022-08-12T14:11:19.377Z,96043.00
2022-08-12T14:14:05.472Z,96042.47
2022-08-12T14:16:48.972Z,96036.81
2022-08-12T14:19:24.224Z,96032.47
2022-08-12T14:21:59.655Z,96044.78
2022-08-12T14:24:30.825Z,96033.97
2022-08-12T14:26:58.676Z,96039.63
2022-08-12T14:29:56.052Z,96033.94
2022-08-12T14:32:16.705Z,96036.53
2022-08-12T14:34:46.813Z,96033.16
2022-08-12T14:37:57.114Z,96036.25
2022-08-12T14:40:02.511Z,96026.41
2022-08-12T14:42:29.631Z,96030.06
2022-08-12T14:45:00.001Z,96021.28
2022-08-12T14:47:35.303Z,96023.16
2022-08-12T14:50:57.513Z,96026.16
2022-08-12T14:58:32.052Z,96040.69
2022-08-12T15:01:21.166Z,96032.69
2022-08-12T15:03:53.904Z,96046.56
2022-08-12T15:06:44.691Z,96035.97
2022-08-12T15:09:14.038Z,96024.69
2022-08-12T15:11:54.722Z,96028.69
2022-08-12T15:14:27.388Z,96022.56
2022-08-12T15:16:54.884Z,96037.00
2022-08-12T15:20:30.870Z,96029.63
2022-08-12T15:22:38.022Z,96020.09
2022-08-12T15:24:56.671Z,96011.78
2022-08-12T15:28:03.316Z,96011.00
2022-08-12T15:30:11.043Z,96022.72
2022-08-12T15:32:38.359Z,96014.19
2022-08-12T15:35:12.179Z,96014.00
2022-08-12T15:38:08.987Z,96017.72
2022-08-12T15:40:30.128Z,96011.03
2022-08-12T15:43:02.364Z,96004.66
2022-08-12T15:45:34.643Z,96005.09
2022-08-12T15:48:16.710Z,96010.31
2022-08-12T15:50:47.546Z,96007.19
2022-08-12T15:53:39.956Z,96001.09
2022-08-12T15:56:12.622Z,95985.09
2022-08-12T15:58:41.378Z,96008.72
2022-08-12T16:01:11.503Z,96003.53
2022-08-12T16:03:46.362Z,96006.25
2022-08-12T16:06:52.095Z,96005.84
2022-08-12T16:09:21.551Z,96002.44
2022-08-12T16:12:03.110Z,95999.31
2022-08-12T16:14:33.156Z,95994.34
2022-08-12T16:17:02.070Z,95993.34
2022-08-12T16:20:02.947Z,95988.19
2022-08-12T16:22:17.258Z,95992.75
2022-08-12T16:24:44.586Z,95992.81
2022-08-12T16:27:11.729Z,95997.59
2022-08-12T16:29:52.273Z,95988.66
2022-08-12T16:32:24.527Z,95987.06
2022-08-12T16:34:59.730Z,95995.09
2022-08-12T16:38:15.560Z,95989.44
2022-08-12T16:40:14.799Z,95994.91
2022-08-12T16:42:53.624Z,95993.44
2022-08-12T16:45:32.034Z,95985.56
2022-08-12T16:48:35.277Z,95984.88
2022-08-12T16:51:12.484Z,95983.75
2022-08-12T16:53:43.994Z,95981.91
2022-08-12T16:56:17.361Z,95982.91
2022-08-12T16:58:47.306Z,95980.94
2022-08-12T17:01:15.495Z,95986.66
2022-08-12T17:03:48.845Z,95978.88
2022-08-12T17:06:22.291Z,95974.84
2022-08-12T17:09:02.303Z,95974.03
2022-08-12T17:11:33.423Z,95971.38
2022-08-12T17:14:01.452Z,95968.84
2022-08-12T17:16:30.101Z,95969.91
2022-08-12T17:19:03.059Z,95970.63
2022-08-12T17:21:41.425Z,95965.16
2022-08-12T17:24:21.475Z,95969.97
2022-08-12T17:26:53.740Z,95975.69
2022-08-12T17:29:24.027Z,95971.34
2022-08-12T17:32:09.958Z,95973.41
2022-08-12T17:34:56.075Z,95972.72
2022-08-12T17:37:23.370Z,95962.94
2022-08-12T17:40:14.899Z,95967.38
2022-08-12T17:42:43.470Z,95978.31
2022-08-12T17:45:19.482Z,95972.97
2022-08-12T17:48:05.143Z,95969.66
2022-08-12T17:50:44.603Z,95972.13
2022-08-12T17:53:16.466Z,95977.66
2022-08-12T17:55:49.753Z,95973.91
2022-08-12T17:58:37.013Z,95973.50
2022-08-12T18:01:06.156Z,95977.44
2022-08-12T18:04:05.321Z,95977.19
2022-08-12T18:06:28.059Z,95979.13
2022-08-12T18:08:56.839Z,95984.31
2022-08-12T18:12:04.998Z,95986.97
2022-08-12T18:14:32.991Z,95988.84
2022-08-12T18:17:05.708Z,95986.22
2022-08-12T18:20:06.175Z,95991.72
2022-08-12T18:22:29.099Z,95991.19
2022-08-12T18:25:04.982Z,95995.56
2022-08-12T18:27:44.121Z,96000.00
2022-08-12T18:30:13.268Z,95997.88
2022-08-12T18:32:58.254Z,96000.19
2022-08-12T18:35:47.639Z,95999.25
2022-08-12T18:38:19.417Z,95996.25
2022-08-12T18:41:07.619Z,95995.91
2022-08-12T18:43:59.509Z,95998.50
2022-08-12T18:46:32.260Z,95994.09
2022-08-12T18:49:19.050Z,95993.34
2022-08-12T18:51:55.347Z,95994.13
2022-08-12T18:54:34.897Z,95999.25
2022-08-12T18:57:16.188Z,95993.84
2022-08-12T19:00:02.300Z,96001.75
2022-08-12T19:02:33.828Z,95999.94
2022-08-12T19:05:09.422Z,96011.94
2022-08-12T19:07:59.861Z,96000.28
2022-08-12T19:10:31.182Z,96004.53
2022-08-12T19:13:24.161Z,96000.44
2022-08-12T19:15:57.919Z,96006.84
2022-08-12T19:18:29.940Z,96006.31
2022-08-12T19:21:06.877Z,96012.41
2022-08-12T19:23:42.837Z,96008.63
2022-08-12T19:26:12.623Z,96020.25
2022-08-12T19:28:41.085Z,96007.94
2022-08-12T19:31:44.504Z,96021.28
2022-08-12T19:38:02.910Z,96016.81
2022-08-12T19:40:30.950Z,96015.47
2022-08-12T19:43:19.293Z,96027.75
2022-08-12T19:45:54.299Z,96019.53
2022-08-12T19:48:30.442Z,96016.09
2022-08-12T19:50:57.908Z,96011.19
2022-08-12T19:53:27.625Z,96025.47
2022-08-12T19:55:57.505Z,96021.81
2022-08-12T19:58:25.676Z,96029.91
2022-08-12T20:00:55.827Z,96033.97
2022-08-12T20:03:39.146Z,96035.56
2022-08-12T20:06:13.932Z,96034.56
2022-08-12T20:08:48.641Z,96032.16
2022-08-12T20:12:13.712Z,96039.81
2022-08-12T20:14:07.183Z,96032.06
2022-08-12T20:16:56.377Z,96035.72
2022-08-12T20:19:52.532Z,96029.81
2022-08-12T20:22:24.754Z,96034.25
2022-08-12T20:24:58.353Z,96032.63
2022-08-12T20:28:03.335Z,96028.13
2022-08-12T20:30:37.249Z,96025.81
2022-08-12T20:33:16.783Z,96031.19
2022-08-12T20:36:06.579Z,96028.78
2022-08-12T20:38:35.734Z,96028.31
2022-08-12T20:41:17.655Z,96027.63
2022-08-12T20:43:55.433Z,96031.88
2022-08-12T20:46:31.686Z,96025.75
2022-08-12T20:49:14.803Z,96024.09
2022-08-12T20:51:54.885Z,96030.72
2022-08-12T20:54:32.530Z,96019.09
2022-08-12T20:57:02.127Z,96028.56
2022-08-12T20:59:49.668Z,96038.75
2022-08-12T21:02:24.304Z,96036.94
2022-08-12T21:05:19.465Z,96030.28
2022-08-12T21:07:52.320Z,96035.59
2022-08-12T21:10:20.868Z,96029.34
2022-08-12T21:12:50.699Z,96029.44
2022-08-12T21:15:30.201Z,96032.03
2022-08-12T21:18:11.778Z,96029.81
2022-08-12T21:20:54.318Z,96029.03
2022-08-12T21:23:22.624Z,96032.22
2022-08-12T21:25:56.794Z,96039.75
2022-08-12T21:28:31.720Z,96029.41
2022-08-12T21:32:34.558Z,96033.00
2022-08-12T21:34:07.585Z,96034.47
2022-08-12T21:36:39.832Z,96026.97
2022-08-12T21:39:18.814Z,96034.59
2022-08-12T21:41:54.299Z,96036.69
2022-08-12T21:45:45.729Z,96030.53
2022-08-12T21:47:21.485Z,96029.16
2022-08-12T21:50:06.729Z,96033.59
2022-08-12T21:52:36.694Z,96024.69
2022-08-12T21:55:08.347Z,96033.22
2022-08-12T21:57:53.718Z,96034.34
2022-08-12T22:00:34.257Z,96034.16
2022-08-12T22:04:01.531Z,96028.09
2022-08-12T22:06:30.454Z,96033.53
2022-08-12T22:09:16.175Z,96026.47
2022-08-12T22:11:56.298Z,96028.69
2022-08-12T22:14:28.359Z,96030.78
2022-08-12T22:16:56.946Z,96030.34
2022-08-12T22:19:24.139Z,96032.63
2022-08-12T22:21:54.402Z,96032.44
2022-08-12T22:24:27.063Z,96018.97
2022-08-12T22:27:14.578Z,96034.59
2022-08-12T22:30:06.053Z,96031.63
2022-08-12T22:32:38.606Z,96034.34
2022-08-12T22:35:29.179Z,96020.03
2022-08-12T22:38:10.935Z,96024.91
2022-08-12T22:40:39.345Z,96027.63
2022-08-12T22:43:29.896Z,96013.47
2022-08-12T22:46:16.260Z,96023.13
2022-08-12T22:48:50.237Z,96021.28
2022-08-12T22:51:21.966Z,96020.66
2022-08-12T22:53:53.582Z,96021.31
2022-08-12T22:56:31.094Z,96023.91
2022-08-12T22:59:03.060Z,96012.91
2022-08-12T23:02:01.129Z,96021.31
2022-08-12T23:04:27.700Z,96025.34
2022-08-12T23:06:58.272Z,96025.53
2022-08-12T23:09:44.689Z,96021.41
2022-08-12T23:12:40.875Z,96012.16
2022-08-12T23:15:08.922Z,96023.41
2022-08-12T23:17:41.048Z,96020.75
2022-08-12T23:20:11.064Z,96015.81
2022-08-12T23:23:09.178Z,96017.69
2022-08-12T23:25:32.531Z,96022.06
2022-08-12T23:28:31.752Z,96014.13
2022-08-12T23:31:04.732Z,96016.47
2022-08-12T23:34:02.614Z,96022.66
2022-08-12T23:36:31.763Z,96017.72
2022-08-12T23:40:13.298Z,96017.06
2022-08-12T23:42:16.425Z,96019.56
2022-08-12T23:44:43.958Z,96011.16
2022-08-12T23:47:11.591Z,96023.59
2022-08-12T23:49:57.916Z,96020.97
2022-08-12T23:52:28.622Z,96032.00
2022-08-12T23:55:23.555Z,96021.75
2022-08-12T23:58:22.877Z,96018.63
